sensor_id;sensor_type;location;lat;lon;timestamp;P1;durP1;ratioP1;P2;durP2;ratioP2
53533;SDS011;39421;53.204;6.568;2023-07-31T00:01:35;8.38;;;4.65;;
53533;SDS011;39421;53.204;6.568;2023-07-31T00:04:03;8.80;;;4.72;;
53533;SDS011;39421;53.204;6.568;2023-07-31T00:06:29;9.17;;;5.00;;
53533;SDS011;39421;53.204;6.568;2023-07-31T00:08:55;8.65;;;5.10;;
53533;SDS011;39421;53.204;6.568;2023-07-31T00:11:22;8.75;;;5.18;;
53533;SDS011;39421;53.204;6.568;2023-07-31T00:13:48;9.53;;;5.00;;
53533;SDS011;39421;53.204;6.568;2023-07-31T00:16:14;14.77;;;5.20;;
53533;SDS011;39421;53.204;6.568;2023-07-31T00:18:40;10.48;;;5.38;;
53533;SDS011;39421;53.204;6.568;2023-07-31T00:21:06;9.47;;;4.70;;
53533;SDS011;39421;53.204;6.568;2023-07-31T00:23:32;9.32;;;4.70;;
53533;SDS011;39421;53.204;6.568;2023-07-31T00:25:58;8.30;;;4.13;;
53533;SDS011;39421;53.204;6.568;2023-07-31T00:28:24;7.90;;;4.30;;
53533;SDS011;39421;53.204;6.568;2023-07-31T00:30:51;6.97;;;3.75;;
53533;SDS011;39421;53.204;6.568;2023-07-31T00:33:18;11.67;;;3.80;;
53533;SDS011;39421;53.204;6.568;2023-07-31T00:35:44;7.38;;;3.90;;
53533;SDS011;39421;53.204;6.568;2023-07-31T00:38:10;7.38;;;3.92;;
53533;SDS011;39421;53.204;6.568;2023-07-31T00:40:36;8.50;;;4.10;;
53533;SDS011;39421;53.204;6.568;2023-07-31T00:43:03;7.63;;;3.72;;
53533;SDS011;39421;53.204;6.568;2023-07-31T00:45:29;12.27;;;3.80;;
53533;SDS011;39421;53.204;6.568;2023-07-31T00:47:56;7.32;;;3.58;;
53533;SDS011;39421;53.204;6.568;2023-07-31T00:50:23;7.18;;;3.95;;
53533;SDS011;39421;53.204;6.568;2023-07-31T00:52:50;7.22;;;3.70;;
53533;SDS011;39421;53.204;6.568;2023-07-31T00:55:16;7.65;;;3.70;;
53533;SDS011;39421;53.204;6.568;2023-07-31T00:57:42;7.70;;;3.85;;
53533;SDS011;39421;53.204;6.568;2023-07-31T01:00:10;7.80;;;3.45;;
53533;SDS011;39421;53.204;6.568;2023-07-31T01:02:37;7.03;;;3.58;;
53533;SDS011;39421;53.204;6.568;2023-07-31T01:05:03;7.53;;;3.50;;
53533;SDS011;39421;53.204;6.568;2023-07-31T01:07:49;7.43;;;3.40;;
53533;SDS011;39421;53.204;6.568;2023-07-31T01:10:16;8.40;;;3.80;;
53533;SDS011;39421;53.204;6.568;2023-07-31T01:12:44;7.68;;;3.50;;
53533;SDS011;39421;53.204;6.568;2023-07-31T01:15:11;7.67;;;3.70;;
53533;SDS011;39421;53.204;6.568;2023-07-31T01:17:40;7.60;;;4.20;;
53533;SDS011;39421;53.204;6.568;2023-07-31T01:20:10;7.90;;;3.58;;
53533;SDS011;39421;53.204;6.568;2023-07-31T01:27:34;7.07;;;3.60;;
53533;SDS011;39421;53.204;6.568;2023-07-31T01:30:16;6.88;;;3.42;;
53533;SDS011;39421;53.204;6.568;2023-07-31T01:32:47;6.60;;;3.22;;
53533;SDS011;39421;53.204;6.568;2023-07-31T01:35:14;7.30;;;3.38;;
53533;SDS011;39421;53.204;6.568;2023-07-31T01:37:40;7.20;;;3.10;;
53533;SDS011;39421;53.204;6.568;2023-07-31T01:40:06;6.70;;;3.47;;
53533;SDS011;39421;53.204;6.568;2023-07-31T01:42:33;6.90;;;3.20;;
53533;SDS011;39421;53.204;6.568;2023-07-31T01:44:59;7.97;;;3.42;;
53533;SDS011;39421;53.204;6.568;2023-07-31T01:47:25;6.90;;;3.40;;
53533;SDS011;39421;53.204;6.568;2023-07-31T01:49:51;7.15;;;3.58;;
53533;SDS011;39421;53.204;6.568;2023-07-31T01:52:17;6.43;;;3.20;;
53533;SDS011;39421;53.204;6.568;2023-07-31T01:54:43;7.10;;;3.10;;
53533;SDS011;39421;53.204;6.568;2023-07-31T01:57:09;6.90;;;3.03;;
53533;SDS011;39421;53.204;6.568;2023-07-31T01:59:35;6.18;;;2.83;;
53533;SDS011;39421;53.204;6.568;2023-07-31T02:02:02;5.88;;;2.80;;
53533;SDS011;39421;53.204;6.568;2023-07-31T02:04:28;5.93;;;2.50;;
53533;SDS011;39421;53.204;6.568;2023-07-31T02:06:54;5.25;;;2.50;;
53533;SDS011;39421;53.204;6.568;2023-07-31T02:09:20;5.18;;;2.30;;
53533;SDS011;39421;53.204;6.568;2023-07-31T02:11:46;4.60;;;2.25;;
53533;SDS011;39421;53.204;6.568;2023-07-31T02:14:12;4.67;;;2.13;;
53533;SDS011;39421;53.204;6.568;2023-07-31T02:16:38;5.38;;;2.10;;
53533;SDS011;39421;53.204;6.568;2023-07-31T02:19:04;4.18;;;2.00;;
53533;SDS011;39421;53.204;6.568;2023-07-31T02:21:30;3.55;;;2.10;;
53533;SDS011;39421;53.204;6.568;2023-07-31T02:23:56;4.95;;;2.17;;
53533;SDS011;39421;53.204;6.568;2023-07-31T02:26:23;4.90;;;2.03;;
53533;SDS011;39421;53.204;6.568;2023-07-31T02:28:49;4.05;;;2.00;;
53533;SDS011;39421;53.204;6.568;2023-07-31T02:31:15;4.75;;;2.15;;
53533;SDS011;39421;53.204;6.568;2023-07-31T02:33:41;4.40;;;2.00;;
53533;SDS011;39421;53.204;6.568;2023-07-31T02:36:07;4.30;;;1.75;;
53533;SDS011;39421;53.204;6.568;2023-07-31T02:38:33;3.67;;;1.77;;
53533;SDS011;39421;53.204;6.568;2023-07-31T02:40:59;4.35;;;2.00;;
53533;SDS011;39421;53.204;6.568;2023-07-31T02:43:25;3.67;;;1.90;;
53533;SDS011;39421;53.204;6.568;2023-07-31T02:45:52;3.60;;;1.80;;
53533;SDS011;39421;53.204;6.568;2023-07-31T02:48:18;3.23;;;1.60;;
53533;SDS011;39421;53.204;6.568;2023-07-31T02:50:45;4.32;;;1.60;;
53533;SDS011;39421;53.204;6.568;2023-07-31T02:53:11;3.97;;;1.60;;
53533;SDS011;39421;53.204;6.568;2023-07-31T02:55:37;4.40;;;1.70;;
53533;SDS011;39421;53.204;6.568;2023-07-31T02:58:03;4.68;;;1.80;;
53533;SDS011;39421;53.204;6.568;2023-07-31T03:00:29;3.57;;;1.70;;
53533;SDS011;39421;53.204;6.568;2023-07-31T03:02:56;4.30;;;1.90;;
53533;SDS011;39421;53.204;6.568;2023-07-31T03:05:22;4.93;;;1.90;;
53533;SDS011;39421;53.204;6.568;2023-07-31T03:07:48;4.73;;;1.90;;
53533;SDS011;39421;53.204;6.568;2023-07-31T03:10:14;4.68;;;1.70;;
53533;SDS011;39421;53.204;6.568;2023-07-31T03:12:40;4.88;;;1.90;;
53533;SDS011;39421;53.204;6.568;2023-07-31T03:15:06;4.47;;;1.80;;
53533;SDS011;39421;53.204;6.568;2023-07-31T03:17:33;5.57;;;1.83;;
53533;SDS011;39421;53.204;6.568;2023-07-31T03:19:59;3.15;;;1.60;;
53533;SDS011;39421;53.204;6.568;2023-07-31T03:22:25;4.30;;;1.80;;
53533;SDS011;39421;53.204;6.568;2023-07-31T03:24:51;4.47;;;1.60;;
53533;SDS011;39421;53.204;6.568;2023-07-31T03:27:18;4.28;;;1.65;;
53533;SDS011;39421;53.204;6.568;2023-07-31T03:29:44;3.40;;;1.40;;
53533;SDS011;39421;53.204;6.568;2023-07-31T03:32:10;3.45;;;1.50;;
53533;SDS011;39421;53.204;6.568;2023-07-31T03:34:36;3.05;;;1.40;;
53533;SDS011;39421;53.204;6.568;2023-07-31T03:37:02;3.95;;;1.70;;
53533;SDS011;39421;53.204;6.568;2023-07-31T03:39:30;4.13;;;1.80;;
53533;SDS011;39421;53.204;6.568;2023-07-31T03:41:56;5.03;;;1.60;;
53533;SDS011;39421;53.204;6.568;2023-07-31T03:44:22;4.68;;;1.73;;
53533;SDS011;39421;53.204;6.568;2023-07-31T03:46:48;3.40;;;1.50;;
53533;SDS011;39421;53.204;6.568;2023-07-31T03:49:14;4.65;;;1.60;;
53533;SDS011;39421;53.204;6.568;2023-07-31T03:51:40;4.15;;;1.60;;
53533;SDS011;39421;53.204;6.568;2023-07-31T03:54:07;4.32;;;1.63;;
53533;SDS011;39421;53.204;6.568;2023-07-31T03:56:33;5.10;;;1.58;;
53533;SDS011;39421;53.204;6.568;2023-07-31T03:58:59;4.15;;;1.50;;
53533;SDS011;39421;53.204;6.568;2023-07-31T04:01:25;5.45;;;1.80;;
53533;SDS011;39421;53.204;6.568;2023-07-31T04:03:52;4.80;;;1.60;;
53533;SDS011;39421;53.204;6.568;2023-07-31T04:06:18;3.88;;;1.55;;
53533;SDS011;39421;53.204;6.568;2023-07-31T04:08:44;5.53;;;2.03;;
53533;SDS011;39421;53.204;6.568;2023-07-31T04:11:10;3.85;;;1.60;;
53533;SDS011;39421;53.204;6.568;2023-07-31T04:13:37;3.97;;;1.58;;
53533;SDS011;39421;53.204;6.568;2023-07-31T04:16:04;4.82;;;1.95;;
53533;SDS011;39421;53.204;6.568;2023-07-31T04:18:30;4.70;;;1.70;;
53533;SDS011;39421;53.204;6.568;2023-07-31T04:20:57;5.23;;;1.70;;
53533;SDS011;39421;53.204;6.568;2023-07-31T04:23:23;3.92;;;1.85;;
53533;SDS011;39421;53.204;6.568;2023-07-31T04:25:50;4.55;;;1.60;;
53533;SDS011;39421;53.204;6.568;2023-07-31T04:28:16;4.60;;;1.80;;
53533;SDS011;39421;53.204;6.568;2023-07-31T04:30:42;3.57;;;1.57;;
53533;SDS011;39421;53.204;6.568;2023-07-31T04:33:08;4.18;;;1.50;;
53533;SDS011;39421;53.204;6.568;2023-07-31T04:35:34;4.97;;;1.65;;
53533;SDS011;39421;53.204;6.568;2023-07-31T04:38:00;5.80;;;1.77;;
53533;SDS011;39421;53.204;6.568;2023-07-31T04:40:29;4.90;;;1.75;;
53533;SDS011;39421;53.204;6.568;2023-07-31T04:42:55;3.70;;;1.45;;
53533;SDS011;39421;53.204;6.568;2023-07-31T04:45:21;4.47;;;1.60;;
53533;SDS011;39421;53.204;6.568;2023-07-31T04:47:47;3.43;;;1.40;;
53533;SDS011;39421;53.204;6.568;2023-07-31T04:50:14;3.15;;;1.25;;
53533;SDS011;39421;53.204;6.568;2023-07-31T04:52:40;3.40;;;1.27;;
53533;SDS011;39421;53.204;6.568;2023-07-31T04:55:06;3.43;;;1.40;;
53533;SDS011;39421;53.204;6.568;2023-07-31T04:57:32;3.95;;;1.30;;
53533;SDS011;39421;53.204;6.568;2023-07-31T04:59:58;2.92;;;1.33;;
53533;SDS011;39421;53.204;6.568;2023-07-31T05:02:24;4.97;;;1.67;;
53533;SDS011;39421;53.204;6.568;2023-07-31T05:04:50;4.53;;;1.70;;
53533;SDS011;39421;53.204;6.568;2023-07-31T05:07:17;2.38;;;1.25;;
53533;SDS011;39421;53.204;6.568;2023-07-31T05:09:43;4.65;;;1.40;;
53533;SDS011;39421;53.204;6.568;2023-07-31T05:12:09;2.40;;;1.30;;
53533;SDS011;39421;53.204;6.568;2023-07-31T05:14:35;4.20;;;1.50;;
53533;SDS011;39421;53.204;6.568;2023-07-31T05:17:01;2.88;;;1.38;;
53533;SDS011;39421;53.204;6.568;2023-07-31T05:19:27;2.25;;;0.90;;
53533;SDS011;39421;53.204;6.568;2023-07-31T05:21:53;5.20;;;1.80;;
53533;SDS011;39421;53.204;6.568;2023-07-31T05:24:19;4.35;;;1.63;;
53533;SDS011;39421;53.204;6.568;2023-07-31T05:26:46;3.63;;;1.47;;
53533;SDS011;39421;53.204;6.568;2023-07-31T05:29:12;5.68;;;1.52;;
53533;SDS011;39421;53.204;6.568;2023-07-31T05:31:38;6.00;;;1.67;;
53533;SDS011;39421;53.204;6.568;2023-07-31T05:34:04;5.00;;;1.37;;
53533;SDS011;39421;53.204;6.568;2023-07-31T05:36:31;6.75;;;1.65;;
53533;SDS011;39421;53.204;6.568;2023-07-31T05:38:57;5.70;;;1.83;;
53533;SDS011;39421;53.204;6.568;2023-07-31T05:41:23;4.10;;;1.30;;
53533;SDS011;39421;53.204;6.568;2023-07-31T05:43:49;4.70;;;1.48;;
53533;SDS011;39421;53.204;6.568;2023-07-31T05:46:16;2.65;;;1.35;;
53533;SDS011;39421;53.204;6.568;2023-07-31T05:48:42;8.00;;;2.00;;
53533;SDS011;39421;53.204;6.568;2023-07-31T05:51:09;3.38;;;1.40;;
53533;SDS011;39421;53.204;6.568;2023-07-31T05:53:35;4.30;;;1.40;;
53533;SDS011;39421;53.204;6.568;2023-07-31T05:56:08;3.80;;;1.20;;
53533;SDS011;39421;53.204;6.568;2023-07-31T05:58:34;3.17;;;1.50;;
53533;SDS011;39421;53.204;6.568;2023-07-31T06:01:00;3.50;;;1.30;;
53533;SDS011;39421;53.204;6.568;2023-07-31T06:03:26;3.55;;;1.58;;
53533;SDS011;39421;53.204;6.568;2023-07-31T06:05:53;3.83;;;1.50;;
53533;SDS011;39421;53.204;6.568;2023-07-31T06:08:19;4.97;;;1.80;;
53533;SDS011;39421;53.204;6.568;2023-07-31T06:10:45;4.60;;;1.80;;
53533;SDS011;39421;53.204;6.568;2023-07-31T06:13:11;5.27;;;1.77;;
53533;SDS011;39421;53.204;6.568;2023-07-31T06:15:37;5.53;;;2.10;;
53533;SDS011;39421;53.204;6.568;2023-07-31T06:18:03;5.82;;;2.10;;
53533;SDS011;39421;53.204;6.568;2023-07-31T06:20:33;6.65;;;2.00;;
53533;SDS011;39421;53.204;6.568;2023-07-31T06:22:59;6.05;;;2.20;;
53533;SDS011;39421;53.204;6.568;2023-07-31T06:25:25;6.55;;;2.40;;
53533;SDS011;39421;53.204;6.568;2023-07-31T06:27:51;7.38;;;2.70;;
53533;SDS011;39421;53.204;6.568;2023-07-31T06:30:17;10.90;;;3.13;;
53533;SDS011;39421;53.204;6.568;2023-07-31T06:32:43;10.00;;;3.10;;
53533;SDS011;39421;53.204;6.568;2023-07-31T06:35:10;9.23;;;2.92;;
53533;SDS011;39421;53.204;6.568;2023-07-31T06:37:36;10.93;;;3.50;;
53533;SDS011;39421;53.204;6.568;2023-07-31T06:40:05;14.98;;;4.63;;
53533;SDS011;39421;53.204;6.568;2023-07-31T06:42:33;13.57;;;4.43;;
53533;SDS011;39421;53.204;6.568;2023-07-31T06:45:00;13.53;;;4.90;;
53533;SDS011;39421;53.204;6.568;2023-07-31T06:47:26;16.30;;;5.00;;
53533;SDS011;39421;53.204;6.568;2023-07-31T06:49:53;16.23;;;4.93;;
53533;SDS011;39421;53.204;6.568;2023-07-31T06:52:19;15.30;;;5.43;;
53533;SDS011;39421;53.204;6.568;2023-07-31T06:54:57;17.87;;;4.97;;
53533;SDS011;39421;53.204;6.568;2023-07-31T06:57:26;16.23;;;5.40;;
53533;SDS011;39421;53.204;6.568;2023-07-31T06:59:52;17.52;;;5.43;;
53533;SDS011;39421;53.204;6.568;2023-07-31T07:02:18;19.15;;;6.40;;
53533;SDS011;39421;53.204;6.568;2023-07-31T07:04:44;17.02;;;5.50;;
53533;SDS011;39421;53.204;6.568;2023-07-31T07:07:10;15.20;;;5.15;;
53533;SDS011;39421;53.204;6.568;2023-07-31T07:09:36;16.10;;;5.80;;
53533;SDS011;39421;53.204;6.568;2023-07-31T07:12:02;19.58;;;5.78;;
53533;SDS011;39421;53.204;6.568;2023-07-31T07:14:29;16.85;;;5.53;;
53533;SDS011;39421;53.204;6.568;2023-07-31T07:16:55;16.40;;;5.37;;
53533;SDS011;39421;53.204;6.568;2023-07-31T07:19:21;18.38;;;4.90;;
53533;SDS011;39421;53.204;6.568;2023-07-31T07:21:47;15.77;;;5.30;;
53533;SDS011;39421;53.204;6.568;2023-07-31T07:24:13;15.15;;;4.97;;
53533;SDS011;39421;53.204;6.568;2023-07-31T07:26:39;20.63;;;5.72;;
53533;SDS011;39421;53.204;6.568;2023-07-31T07:29:05;19.70;;;5.67;;
53533;SDS011;39421;53.204;6.568;2023-07-31T07:31:33;16.15;;;5.30;;
53533;SDS011;39421;53.204;6.568;2023-07-31T07:33:59;19.25;;;6.05;;
53533;SDS011;39421;53.204;6.568;2023-07-31T07:36:27;19.85;;;6.13;;
53533;SDS011;39421;53.204;6.568;2023-07-31T07:38:53;18.08;;;5.75;;
53533;SDS011;39421;53.204;6.568;2023-07-31T07:41:20;18.55;;;5.93;;
53533;SDS011;39421;53.204;6.568;2023-07-31T07:43:46;16.75;;;6.50;;
53533;SDS011;39421;53.204;6.568;2023-07-31T07:46:12;14.50;;;5.70;;
53533;SDS011;39421;53.204;6.568;2023-07-31T07:48:38;15.32;;;5.28;;
53533;SDS011;39421;53.204;6.568;2023-07-31T07:51:04;12.60;;;4.35;;
53533;SDS011;39421;53.204;6.568;2023-07-31T07:53:30;8.30;;;2.70;;
53533;SDS011;39421;53.204;6.568;2023-07-31T07:55:56;10.18;;;3.03;;
53533;SDS011;39421;53.204;6.568;2023-07-31T07:58:23;7.95;;;2.70;;
53533;SDS011;39421;53.204;6.568;2023-07-31T08:00:50;6.50;;;2.10;;
53533;SDS011;39421;53.204;6.568;2023-07-31T08:03:16;6.57;;;1.92;;
53533;SDS011;39421;53.204;6.568;2023-07-31T08:05:42;5.35;;;1.90;;
53533;SDS011;39421;53.204;6.568;2023-07-31T08:08:08;4.43;;;1.80;;
53533;SDS011;39421;53.204;6.568;2023-07-31T08:10:34;5.10;;;1.70;;
53533;SDS011;39421;53.204;6.568;2023-07-31T08:13:00;5.10;;;1.90;;
53533;SDS011;39421;53.204;6.568;2023-07-31T08:15:27;6.03;;;2.10;;
53533;SDS011;39421;53.204;6.568;2023-07-31T08:17:53;5.88;;;1.77;;
53533;SDS011;39421;53.204;6.568;2023-07-31T08:20:19;4.93;;;1.85;;
53533;SDS011;39421;53.204;6.568;2023-07-31T08:22:45;6.33;;;1.90;;
53533;SDS011;39421;53.204;6.568;2023-07-31T08:25:11;5.70;;;2.10;;
53533;SDS011;39421;53.204;6.568;2023-07-31T08:27:38;6.03;;;2.20;;
53533;SDS011;39421;53.204;6.568;2023-07-31T08:30:04;3.95;;;1.63;;
53533;SDS011;39421;53.204;6.568;2023-07-31T08:32:30;6.20;;;1.92;;
53533;SDS011;39421;53.204;6.568;2023-07-31T08:34:56;4.22;;;1.75;;
53533;SDS011;39421;53.204;6.568;2023-07-31T08:37:23;3.45;;;1.55;;
53533;SDS011;39421;53.204;6.568;2023-07-31T08:39:49;3.90;;;1.40;;
53533;SDS011;39421;53.204;6.568;2023-07-31T08:42:15;4.50;;;1.75;;
53533;SDS011;39421;53.204;6.568;2023-07-31T08:44:41;4.23;;;1.60;;
53533;SDS011;39421;53.204;6.568;2023-07-31T08:47:07;5.00;;;1.55;;
53533;SDS011;39421;53.204;6.568;2023-07-31T08:49:34;4.78;;;1.85;;
53533;SDS011;39421;53.204;6.568;2023-07-31T08:52:00;3.20;;;1.40;;
53533;SDS011;39421;53.204;6.568;2023-07-31T08:54:26;3.90;;;1.40;;
53533;SDS011;39421;53.204;6.568;2023-07-31T08:56:56;3.63;;;1.25;;
53533;SDS011;39421;53.204;6.568;2023-07-31T08:59:22;3.43;;;1.40;;
53533;SDS011;39421;53.204;6.568;2023-07-31T09:01:49;3.67;;;1.42;;
53533;SDS011;39421;53.204;6.568;2023-07-31T09:04:16;2.83;;;1.20;;
53533;SDS011;39421;53.204;6.568;2023-07-31T09:06:44;2.58;;;1.20;;
53533;SDS011;39421;53.204;6.568;2023-07-31T09:09:10;4.57;;;1.52;;
53533;SDS011;39421;53.204;6.568;2023-07-31T09:11:37;3.65;;;1.30;;
53533;SDS011;39421;53.204;6.568;2023-07-31T09:14:03;4.00;;;1.30;;
53533;SDS011;39421;53.204;6.568;2023-07-31T09:16:34;3.22;;;1.45;;
53533;SDS011;39421;53.204;6.568;2023-07-31T09:19:00;3.10;;;1.50;;
53533;SDS011;39421;53.204;6.568;2023-07-31T09:21:30;3.10;;;1.40;;
53533;SDS011;39421;53.204;6.568;2023-07-31T09:23:57;3.90;;;1.42;;
53533;SDS011;39421;53.204;6.568;2023-07-31T09:26:30;3.03;;;1.27;;
53533;SDS011;39421;53.204;6.568;2023-07-31T09:28:57;3.40;;;1.60;;
53533;SDS011;39421;53.204;6.568;2023-07-31T09:31:33;2.75;;;1.45;;
53533;SDS011;39421;53.204;6.568;2023-07-31T09:33:59;3.83;;;1.50;;
53533;SDS011;39421;53.204;6.568;2023-07-31T09:36:28;3.03;;;1.30;;
53533;SDS011;39421;53.204;6.568;2023-07-31T09:38:55;6.05;;;2.70;;
53533;SDS011;39421;53.204;6.568;2023-07-31T09:41:21;3.60;;;1.25;;
53533;SDS011;39421;53.204;6.568;2023-07-31T09:43:54;1.90;;;1.00;;
53533;SDS011;39421;53.204;6.568;2023-07-31T09:46:20;2.00;;;1.08;;
53533;SDS011;39421;53.204;6.568;2023-07-31T09:48:47;3.75;;;1.10;;
53533;SDS011;39421;53.204;6.568;2023-07-31T09:51:13;2.15;;;1.00;;
53533;SDS011;39421;53.204;6.568;2023-07-31T09:53:39;1.67;;;0.80;;
53533;SDS011;39421;53.204;6.568;2023-07-31T09:56:05;2.20;;;0.80;;
53533;SDS011;39421;53.204;6.568;2023-07-31T09:58:33;2.50;;;1.10;;
53533;SDS011;39421;53.204;6.568;2023-07-31T10:01:01;2.67;;;0.90;;
53533;SDS011;39421;53.204;6.568;2023-07-31T10:03:28;1.35;;;0.75;;
53533;SDS011;39421;53.204;6.568;2023-07-31T10:05:55;1.47;;;0.90;;
53533;SDS011;39421;53.204;6.568;2023-07-31T10:08:23;3.65;;;1.40;;
53533;SDS011;39421;53.204;6.568;2023-07-31T10:10:55;2.20;;;0.88;;
53533;SDS011;39421;53.204;6.568;2023-07-31T10:13:24;2.40;;;0.82;;
53533;SDS011;39421;53.204;6.568;2023-07-31T10:15:50;0.93;;;0.70;;
53533;SDS011;39421;53.204;6.568;2023-07-31T10:18:16;1.40;;;0.70;;
53533;SDS011;39421;53.204;6.568;2023-07-31T10:20:44;1.67;;;0.80;;
53533;SDS011;39421;53.204;6.568;2023-07-31T10:23:10;0.90;;;0.67;;
53533;SDS011;39421;53.204;6.568;2023-07-31T10:25:36;1.17;;;0.70;;
53533;SDS011;39421;53.204;6.568;2023-07-31T10:28:02;1.17;;;0.70;;
53533;SDS011;39421;53.204;6.568;2023-07-31T10:30:29;1.13;;;0.50;;
53533;SDS011;39421;53.204;6.568;2023-07-31T10:32:56;1.45;;;0.60;;
53533;SDS011;39421;53.204;6.568;2023-07-31T10:35:23;1.17;;;0.60;;
53533;SDS011;39421;53.204;6.568;2023-07-31T10:37:49;0.63;;;0.50;;
53533;SDS011;39421;53.204;6.568;2023-07-31T10:40:16;0.60;;;0.60;;
53533;SDS011;39421;53.204;6.568;2023-07-31T10:45:12;1.60;;;0.47;;
53533;SDS011;39421;53.204;6.568;2023-07-31T10:47:45;0.90;;;0.40;;
53533;SDS011;39421;53.204;6.568;2023-07-31T10:50:20;1.50;;;0.50;;
53533;SDS011;39421;53.204;6.568;2023-07-31T10:52:55;1.45;;;0.70;;
53533;SDS011;39421;53.204;6.568;2023-07-31T10:55:25;1.00;;;0.60;;
53533;SDS011;39421;53.204;6.568;2023-07-31T10:57:52;1.90;;;0.95;;
53533;SDS011;39421;53.204;6.568;2023-07-31T11:05:51;1.17;;;0.80;;
53533;SDS011;39421;53.204;6.568;2023-07-31T11:08:19;1.98;;;0.80;;
53533;SDS011;39421;53.204;6.568;2023-07-31T11:10:47;2.00;;;0.90;;
53533;SDS011;39421;53.204;6.568;2023-07-31T11:13:13;1.55;;;0.80;;
53533;SDS011;39421;53.204;6.568;2023-07-31T11:15:39;2.38;;;1.00;;
53533;SDS011;39421;53.204;6.568;2023-07-31T11:18:06;1.92;;;1.10;;
53533;SDS011;39421;53.204;6.568;2023-07-31T11:20:33;1.85;;;1.05;;
53533;SDS011;39421;53.204;6.568;2023-07-31T11:23:04;2.20;;;1.10;;
53533;SDS011;39421;53.204;6.568;2023-07-31T11:25:30;2.88;;;1.20;;
53533;SDS011;39421;53.204;6.568;2023-07-31T11:27:57;2.40;;;1.40;;
53533;SDS011;39421;53.204;6.568;2023-07-31T11:30:24;3.08;;;1.35;;
53533;SDS011;39421;53.204;6.568;2023-07-31T11:32:50;2.47;;;1.20;;
53533;SDS011;39421;53.204;6.568;2023-07-31T11:35:17;2.88;;;1.08;;
53533;SDS011;39421;53.204;6.568;2023-07-31T11:37:43;2.33;;;1.00;;
53533;SDS011;39421;53.204;6.568;2023-07-31T11:40:10;2.40;;;1.20;;
53533;SDS011;39421;53.204;6.568;2023-07-31T11:42:37;2.50;;;1.10;;
53533;SDS011;39421;53.204;6.568;2023-07-31T11:45:03;2.85;;;1.30;;
53533;SDS011;39421;53.204;6.568;2023-07-31T11:47:31;2.88;;;1.10;;
53533;SDS011;39421;53.204;6.568;2023-07-31T11:49:59;2.78;;;1.02;;
53533;SDS011;39421;53.204;6.568;2023-07-31T11:52:26;3.53;;;0.90;;
53533;SDS011;39421;53.204;6.568;2023-07-31T11:54:53;2.85;;;1.02;;
53533;SDS011;39421;53.204;6.568;2023-07-31T11:57:19;3.55;;;1.10;;
53533;SDS011;39421;53.204;6.568;2023-07-31T11:59:46;3.30;;;1.05;;
53533;SDS011;39421;53.204;6.568;2023-07-31T12:02:12;3.30;;;1.27;;
53533;SDS011;39421;53.204;6.568;2023-07-31T12:04:38;3.17;;;1.20;;
53533;SDS011;39421;53.204;6.568;2023-07-31T12:07:04;3.10;;;1.40;;
53533;SDS011;39421;53.204;6.568;2023-07-31T12:09:31;3.33;;;1.27;;
53533;SDS011;39421;53.204;6.568;2023-07-31T12:11:57;3.13;;;1.42;;
53533;SDS011;39421;53.204;6.568;2023-07-31T12:14:23;3.70;;;1.48;;
53533;SDS011;39421;53.204;6.568;2023-07-31T12:19:22;5.15;;;1.50;;
53533;SDS011;39421;53.204;6.568;2023-07-31T12:21:49;2.88;;;1.20;;
53533;SDS011;39421;53.204;6.568;2023-07-31T12:24:17;3.75;;;1.20;;
53533;SDS011;39421;53.204;6.568;2023-07-31T12:26:44;2.53;;;1.20;;
53533;SDS011;39421;53.204;6.568;2023-07-31T12:29:12;2.95;;;1.33;;
53533;SDS011;39421;53.204;6.568;2023-07-31T12:31:38;2.90;;;1.30;;
53533;SDS011;39421;53.204;6.568;2023-07-31T12:34:16;2.20;;;1.20;;
53533;SDS011;39421;53.204;6.568;2023-07-31T12:36:43;2.42;;;1.20;;
53533;SDS011;39421;53.204;6.568;2023-07-31T12:39:09;2.30;;;1.30;;
53533;SDS011;39421;53.204;6.568;2023-07-31T12:41:35;2.40;;;1.27;;
53533;SDS011;39421;53.204;6.568;2023-07-31T12:44:02;4.28;;;1.50;;
53533;SDS011;39421;53.204;6.568;2023-07-31T12:46:28;4.05;;;1.63;;
53533;SDS011;39421;53.204;6.568;2023-07-31T12:48:54;2.97;;;1.40;;
53533;SDS011;39421;53.204;6.568;2023-07-31T12:51:21;3.10;;;1.60;;
53533;SDS011;39421;53.204;6.568;2023-07-31T12:53:47;5.00;;;1.48;;
53533;SDS011;39421;53.204;6.568;2023-07-31T12:56:13;4.37;;;1.80;;
53533;SDS011;39421;53.204;6.568;2023-07-31T12:58:39;4.15;;;1.70;;
53533;SDS011;39421;53.204;6.568;2023-07-31T13:01:05;5.32;;;1.70;;
53533;SDS011;39421;53.204;6.568;2023-07-31T13:03:31;4.57;;;1.55;;
53533;SDS011;39421;53.204;6.568;2023-07-31T13:05:57;6.20;;;1.65;;
53533;SDS011;39421;53.204;6.568;2023-07-31T13:08:24;5.00;;;1.80;;
53533;SDS011;39421;53.204;6.568;2023-07-31T13:10:50;6.07;;;1.88;;
53533;SDS011;39421;53.204;6.568;2023-07-31T13:13:16;5.68;;;2.00;;
53533;SDS011;39421;53.204;6.568;2023-07-31T13:15:43;6.60;;;2.10;;
53533;SDS011;39421;53.204;6.568;2023-07-31T13:18:11;6.63;;;2.00;;
53533;SDS011;39421;53.204;6.568;2023-07-31T13:20:37;6.95;;;2.30;;
53533;SDS011;39421;53.204;6.568;2023-07-31T13:23:03;6.75;;;2.30;;
53533;SDS011;39421;53.204;6.568;2023-07-31T13:25:29;8.48;;;2.33;;
53533;SDS011;39421;53.204;6.568;2023-07-31T13:27:55;8.13;;;2.10;;
53533;SDS011;39421;53.204;6.568;2023-07-31T13:30:21;7.30;;;2.08;;
53533;SDS011;39421;53.204;6.568;2023-07-31T13:32:47;7.80;;;2.05;;
53533;SDS011;39421;53.204;6.568;2023-07-31T13:35:14;7.75;;;2.15;;
53533;SDS011;39421;53.204;6.568;2023-07-31T13:37:40;7.68;;;2.28;;
53533;SDS011;39421;53.204;6.568;2023-07-31T13:40:06;9.05;;;2.50;;
53533;SDS011;39421;53.204;6.568;2023-07-31T13:42:32;7.93;;;2.60;;
53533;SDS011;39421;53.204;6.568;2023-07-31T13:44:58;9.15;;;2.60;;
53533;SDS011;39421;53.204;6.568;2023-07-31T13:47:25;9.60;;;2.50;;
53533;SDS011;39421;53.204;6.568;2023-07-31T13:49:51;10.00;;;2.50;;
53533;SDS011;39421;53.204;6.568;2023-07-31T13:52:17;8.15;;;2.53;;
53533;SDS011;39421;53.204;6.568;2023-07-31T13:54:43;10.60;;;2.30;;
53533;SDS011;39421;53.204;6.568;2023-07-31T13:57:09;9.27;;;2.45;;
53533;SDS011;39421;53.204;6.568;2023-07-31T13:59:35;8.25;;;2.30;;
53533;SDS011;39421;53.204;6.568;2023-07-31T14:02:02;9.80;;;2.60;;
53533;SDS011;39421;53.204;6.568;2023-07-31T14:04:28;7.15;;;2.40;;
53533;SDS011;39421;53.204;6.568;2023-07-31T14:06:55;8.83;;;2.67;;
53533;SDS011;39421;53.204;6.568;2023-07-31T14:09:22;9.30;;;2.75;;
53533;SDS011;39421;53.204;6.568;2023-07-31T14:11:48;7.90;;;2.65;;
53533;SDS011;39421;53.204;6.568;2023-07-31T14:14:14;6.77;;;2.30;;
53533;SDS011;39421;53.204;6.568;2023-07-31T14:16:40;7.40;;;2.60;;
53533;SDS011;39421;53.204;6.568;2023-07-31T14:19:06;6.60;;;2.47;;
53533;SDS011;39421;53.204;6.568;2023-07-31T14:21:38;8.48;;;2.80;;
53533;SDS011;39421;53.204;6.568;2023-07-31T14:24:05;7.72;;;2.50;;
53533;SDS011;39421;53.204;6.568;2023-07-31T14:26:31;7.15;;;2.45;;
53533;SDS011;39421;53.204;6.568;2023-07-31T14:28:58;7.53;;;2.70;;
53533;SDS011;39421;53.204;6.568;2023-07-31T14:31:24;7.40;;;2.80;;
53533;SDS011;39421;53.204;6.568;2023-07-31T14:33:50;8.45;;;2.70;;
53533;SDS011;39421;53.204;6.568;2023-07-31T14:36:16;8.98;;;2.60;;
53533;SDS011;39421;53.204;6.568;2023-07-31T14:38:42;6.75;;;2.40;;
53533;SDS011;39421;53.204;6.568;2023-07-31T14:41:08;7.25;;;2.80;;
53533;SDS011;39421;53.204;6.568;2023-07-31T14:43:36;6.75;;;2.30;;
53533;SDS011;39421;53.204;6.568;2023-07-31T14:46:02;9.05;;;2.80;;
53533;SDS011;39421;53.204;6.568;2023-07-31T14:48:31;6.43;;;2.20;;
53533;SDS011;39421;53.204;6.568;2023-07-31T14:50:57;7.82;;;2.67;;
53533;SDS011;39421;53.204;6.568;2023-07-31T14:53:23;7.63;;;2.72;;
53533;SDS011;39421;53.204;6.568;2023-07-31T14:55:49;9.80;;;2.70;;
53533;SDS011;39421;53.204;6.568;2023-07-31T14:58:17;9.73;;;3.05;;